Time;durP1;ratioP1;P1;durP2;ratioP2;P2;SDS_P1;SDS_P2;PMS_P1;PMS_P2;Temp;Humidity;BMP_temperature;BMP_pressure;BME280_temperature;BME280_humidity;BME280_pressure;Samples;Min_cycle;Max_cycle;Signal;HPM_P1;HPM_P2
2023/04/03 00:01:08;;;;;;;2.93;1.80;;;;;;;;;;5071541;28;20456;-70
2023/04/03 00:03:37;;;;;;;6.90;1.53;;;;;;;;;;5067596;28;20524;-69
2023/04/03 00:06:06;;;;;;;4.50;1.80;;;;;;;;;;5067780;28;21100;-70
2023/04/03 00:08:46;;;;;;;6.80;2.00;;;;;;;;;;5068802;28;20457;-70
2023/04/03 00:11:13;;;;;;;6.27;1.47;;;;;;;;;;5072070;28;20695;-71
2023/04/03 00:13:41;;;;;;;4.30;1.87;;;;;;;;;;5065960;28;20548;-71
2023/04/03 00:16:15;;;;;;;3.63;1.50;;;;;;;;;;5068863;28;20817;-71
2023/04/03 00:18:43;;;;;;;6.53;2.27;;;;;;;;;;5058266;28;20448;-71
2023/04/03 00:21:12;;;;;;;3.33;1.80;;;;;;;;;;5059827;28;20497;-71
2023/04/03 00:23:40;;;;;;;7.37;1.90;;;;;;;;;;5062984;28;20456;-71
2023/04/03 00:26:07;;;;;;;8.57;2.10;;;;;;;;;;5070174;28;20481;-71
2023/04/03 00:28:35;;;;;;;4.43;1.30;;;;;;;;;;5077389;28;20571;-71
2023/04/03 00:31:02;;;;;;;4.03;1.70;;;;;;;;;;5076450;28;20480;-71
2023/04/03 00:33:38;;;;;;;5.63;1.70;;;;;;;;;;5076183;28;20469;-71
2023/04/03 00:36:10;;;;;;;2.93;1.10;;;;;;;;;;5078855;28;20461;-71
2023/04/03 00:38:37;;;;;;;3.87;1.73;;;;;;;;;;5068301;28;20892;-71
2023/04/03 00:41:06;;;;;;;3.17;1.33;;;;;;;;;;5068191;28;20567;-71
2023/04/03 00:43:34;;;;;;;6.63;1.80;;;;;;;;;;5071369;28;20449;-71
2023/04/03 00:46:03;;;;;;;3.17;1.40;;;;;;;;;;5078274;28;20480;-71
2023/04/03 00:48:33;;;;;;;5.53;1.60;;;;;;;;;;5065152;28;20831;-70
2023/04/03 00:51:01;;;;;;;4.40;1.90;;;;;;;;;;5058920;28;20614;-71
2023/04/03 00:53:34;;;;;;;2.80;1.20;;;;;;;;;;5065883;28;20480;-70
2023/04/03 00:56:01;;;;;;;5.00;1.70;;;;;;;;;;5077693;28;20450;-70
2023/04/03 00:58:34;;;;;;;6.07;2.10;;;;;;;;;;5077107;28;20465;-70
2023/04/03 01:01:04;;;;;;;3.30;1.30;;;;;;;;;;5078396;28;20456;-71
2023/04/03 01:03:33;;;;;;;5.90;2.03;;;;;;;;;;5077691;28;20524;-72
2023/04/03 01:06:01;;;;;;;5.17;1.50;;;;;;;;;;5077868;28;20748;-70
2023/04/03 01:08:28;;;;;;;3.97;1.60;;;;;;;;;;5077539;28;20496;-71
2023/04/03 01:10:56;;;;;;;8.63;2.10;;;;;;;;;;5062237;28;20461;-71
2023/04/03 01:13:26;;;;;;;7.23;1.90;;;;;;;;;;5077229;28;20459;-71
2023/04/03 01:15:54;;;;;;;4.03;1.77;;;;;;;;;;5067742;28;20485;-71
2023/04/03 01:18:22;;;;;;;5.93;1.40;;;;;;;;;;5077809;28;20939;-71
2023/04/03 01:21:07;;;;;;;6.83;1.90;;;;;;;;;;5061941;28;20458;-72
2023/04/03 01:23:56;;;;;;;8.47;1.63;;;;;;;;;;5076004;28;20453;-72
2023/04/03 01:26:23;;;;;;;8.70;1.67;;;;;;;;;;5077512;28;20728;-71
2023/04/03 01:28:51;;;;;;;3.60;2.20;;;;;;;;;;5066481;28;20453;-71
2023/04/03 01:31:22;;;;;;;5.20;1.93;;;;;;;;;;5078284;28;20447;-72
2023/04/03 01:33:50;;;;;;;4.33;1.70;;;;;;;;;;5077263;28;20798;-71
2023/04/03 01:36:20;;;;;;;12.00;1.60;;;;;;;;;;5077002;28;20477;-71
2023/04/03 01:38:47;;;;;;;3.57;1.60;;;;;;;;;;5072176;28;20494;-71
2023/04/03 01:41:15;;;;;;;5.23;1.77;;;;;;;;;;5078344;28;20778;-71
2023/04/03 01:43:42;;;;;;;5.40;2.00;;;;;;;;;;5072940;28;20461;-71
2023/04/03 01:46:10;;;;;;;3.97;1.73;;;;;;;;;;5057225;28;20813;-71
2023/04/03 01:48:38;;;;;;;7.07;3.63;;;;;;;;;;5057296;28;20446;-71
2023/04/03 01:51:06;;;;;;;5.97;1.70;;;;;;;;;;5058130;28;20488;-71
2023/04/03 01:53:34;;;;;;;6.93;1.50;;;;;;;;;;5071091;28;20521;-71
2023/04/03 01:56:01;;;;;;;5.80;2.00;;;;;;;;;;5057124;28;20454;-71
2023/04/03 01:58:28;;;;;;;4.67;1.53;;;;;;;;;;5069126;28;20836;-71
2023/04/03 02:00:55;;;;;;;4.80;1.60;;;;;;;;;;5064486;28;20457;-71
2023/04/03 02:03:23;;;;;;;4.53;1.70;;;;;;;;;;5077740;28;20516;-72
2023/04/03 02:05:51;;;;;;;4.80;1.50;;;;;;;;;;5077109;28;20586;-72
2023/04/03 02:08:21;;;;;;;6.13;1.83;;;;;;;;;;5077362;28;20783;-72
2023/04/03 02:10:51;;;;;;;2.97;1.77;;;;;;;;;;5075259;28;20456;-72
2023/04/03 02:13:19;;;;;;;3.63;1.33;;;;;;;;;;5064473;28;20479;-72
2023/04/03 02:15:47;;;;;;;6.33;1.97;;;;;;;;;;5076319;28;20526;-71
2023/04/03 02:18:17;;;;;;;9.37;2.27;;;;;;;;;;5070090;28;20541;-71
2023/04/03 02:20:44;;;;;;;11.50;2.17;;;;;;;;;;5080439;28;20460;-71
2023/04/03 02:23:12;;;;;;;5.30;1.53;;;;;;;;;;5079670;28;20456;-71
2023/04/03 02:25:41;;;;;;;4.50;1.50;;;;;;;;;;5079768;28;20788;-72
2023/04/03 02:28:10;;;;;;;5.40;1.50;;;;;;;;;;5064091;28;20519;-71
2023/04/03 02:30:38;;;;;;;5.93;2.03;;;;;;;;;;5059214;28;20462;-72
2023/04/03 02:33:05;;;;;;;5.97;1.70;;;;;;;;;;5072669;28;20453;-71
2023/04/03 02:35:33;;;;;;;7.77;2.63;;;;;;;;;;5080081;28;20452;-71
2023/04/03 02:38:00;;;;;;;9.80;2.40;;;;;;;;;;5078923;28;20489;-71
2023/04/03 02:40:28;;;;;;;8.60;2.60;;;;;;;;;;5076975;28;20492;-73
2023/04/03 02:42:57;;;;;;;4.90;2.20;;;;;;;;;;5066368;28;20790;-73
2023/04/03 02:45:25;;;;;;;7.70;2.70;;;;;;;;;;5060116;28;20465;-72
2023/04/03 02:47:52;;;;;;;5.93;2.27;;;;;;;;;;5075845;28;20861;-72
2023/04/03 02:50:20;;;;;;;5.63;1.90;;;;;;;;;;5080063;28;20613;-72
2023/04/03 02:52:47;;;;;;;4.57;2.63;;;;;;;;;;5078699;28;20467;-72
2023/04/03 02:55:16;;;;;;;7.17;2.07;;;;;;;;;;5078408;28;20460;-72
2023/04/03 02:57:43;;;;;;;3.20;1.80;;;;;;;;;;5078396;28;20491;-72
2023/04/03 03:00:15;;;;;;;5.67;2.00;;;;;;;;;;5079954;28;20457;-72
2023/04/03 03:02:43;;;;;;;3.83;1.73;;;;;;;;;;5079441;28;20571;-72
2023/04/03 03:05:10;;;;;;;5.23;1.77;;;;;;;;;;5079772;28;20780;-72
2023/04/03 03:07:38;;;;;;;9.07;2.77;;;;;;;;;;5079797;28;20491;-72
2023/04/03 03:10:15;;;;;;;4.97;2.33;;;;;;;;;;5079250;28;20433;-72
2023/04/03 03:12:43;;;;;;;6.13;2.70;;;;;;;;;;5079479;28;20456;-72
2023/04/03 03:15:10;;;;;;;4.07;1.70;;;;;;;;;;5078910;28;20457;-72
2023/04/03 03:17:44;;;;;;;6.07;2.70;;;;;;;;;;5062338;28;20984;-71
2023/04/03 03:20:18;;;;;;;5.53;2.57;;;;;;;;;;5075425;28;20448;-72
2023/04/03 03:22:47;;;;;;;5.83;1.50;;;;;;;;;;5059860;28;20482;-71
2023/04/03 03:25:21;;;;;;;5.73;1.90;;;;;;;;;;5078348;28;20461;-71
2023/04/03 03:27:48;;;;;;;4.37;2.30;;;;;;;;;;5077037;28;20453;-71
2023/04/03 03:30:16;;;;;;;8.43;2.33;;;;;;;;;;5078387;28;20515;-72
2023/04/03 03:32:45;;;;;;;3.93;2.00;;;;;;;;;;5077326;28;20453;-72
2023/04/03 03:35:13;;;;;;;9.87;2.47;;;;;;;;;;5075490;28;20567;-72
2023/04/03 03:37:47;;;;;;;7.70;3.03;;;;;;;;;;5071407;28;20586;-72
2023/04/03 03:40:24;;;;;;;5.73;2.10;;;;;;;;;;5058262;28;20751;-71
2023/04/03 03:42:53;;;;;;;5.37;2.40;;;;;;;;;;5056640;28;20869;-72
2023/04/03 03:45:20;;;;;;;6.00;2.40;;;;;;;;;;5054991;28;20527;-72
2023/04/03 03:47:53;;;;;;;4.60;3.00;;;;;;;;;;5063379;28;20441;-72
2023/04/03 03:50:20;;;;;;;5.70;3.10;;;;;;;;;;5069624;28;20461;-72
2023/04/03 03:52:48;;;;;;;8.73;2.57;;;;;;;;;;5062993;28;20445;-72
2023/04/03 03:55:15;;;;;;;5.60;2.17;;;;;;;;;;5076401;28;20472;-72
2023/04/03 03:57:43;;;;;;;11.33;2.03;;;;;;;;;;5077162;28;20583;-72
2023/04/03 04:00:13;;;;;;;7.03;2.00;;;;;;;;;;5059808;28;20516;-72
2023/04/03 04:02:40;;;;;;;3.83;1.93;;;;;;;;;;5055112;28;20481;-72
2023/04/03 04:05:10;;;;;;;10.27;3.67;;;;;;;;;;5054803;28;20501;-72
2023/04/03 04:07:37;;;;;;;4.93;2.07;;;;;;;;;;5071875;28;20457;-72
2023/04/03 04:10:25;;;;;;;5.70;2.13;;;;;;;;;;5075121;28;20697;-71
2023/04/03 04:12:52;;;;;;;5.90;2.50;;;;;;;;;;5073985;28;20926;-72
2023/04/03 04:15:21;;;;;;;4.67;2.33;;;;;;;;;;5073727;28;20473;-72
2023/04/03 04:17:54;;;;;;;12.83;2.40;;;;;;;;;;5074991;28;20520;-72
2023/04/03 04:20:23;;;;;;;5.27;1.97;;;;;;;;;;5075154;28;20466;-72
2023/04/03 04:22:50;;;;;;;6.43;2.37;;;;;;;;;;5065067;28;20457;-72
2023/04/03 04:25:19;;;;;;;3.93;2.30;;;;;;;;;;5055697;28;20478;-71
2023/04/03 04:27:46;;;;;;;7.80;2.53;;;;;;;;;;5058927;28;20454;-72
2023/04/03 04:30:16;;;;;;;4.50;2.10;;;;;;;;;;5077364;28;20550;-73
2023/04/03 04:32:43;;;;;;;7.33;2.70;;;;;;;;;;5076993;28;20499;-72
2023/04/03 04:35:11;;;;;;;6.83;2.10;;;;;;;;;;5075795;28;20465;-72
2023/04/03 04:37:39;;;;;;;6.57;2.47;;;;;;;;;;5064120;28;20484;-73
2023/04/03 04:40:13;;;;;;;6.13;2.37;;;;;;;;;;5060120;28;20449;-72
2023/04/03 04:42:40;;;;;;;7.43;2.30;;;;;;;;;;5078023;28;20445;-71
2023/04/03 04:45:08;;;;;;;5.50;2.10;;;;;;;;;;5076375;28;20472;-72
2023/04/03 04:47:35;;;;;;;8.50;2.23;;;;;;;;;;5077226;28;20485;-72
2023/04/03 04:50:05;;;;;;;8.60;1.97;;;;;;;;;;5075810;28;20457;-72
2023/04/03 04:52:32;;;;;;;3.50;1.73;;;;;;;;;;5075641;28;20494;-72
2023/04/03 04:55:01;;;;;;;3.10;2.00;;;;;;;;;;5073555;28;20984;-72
2023/04/03 04:57:28;;;;;;;8.40;2.80;;;;;;;;;;5055457;28;20442;-71
2023/04/03 04:59:55;;;;;;;4.50;1.80;;;;;;;;;;5055614;28;20802;-72
2023/04/03 05:02:23;;;;;;;5.67;2.43;;;;;;;;;;5064490;28;20481;-72
2023/04/03 05:04:51;;;;;;;8.20;2.97;;;;;;;;;;5073442;28;20457;-72
2023/04/03 05:07:19;;;;;;;6.10;3.50;;;;;;;;;;5065206;28;20450;-71
2023/04/03 05:09:46;;;;;;;7.20;2.43;;;;;;;;;;5075403;28;20452;-71
2023/04/03 05:12:15;;;;;;;5.97;2.93;;;;;;;;;;5074402;28;20888;-72
2023/04/03 05:14:42;;;;;;;4.73;2.20;;;;;;;;;;5069465;28;20519;-72
2023/04/03 05:17:09;;;;;;;8.37;2.83;;;;;;;;;;5067969;28;20555;-71
2023/04/03 05:19:37;;;;;;;3.20;2.00;;;;;;;;;;5075102;28;20492;-72
2023/04/03 05:22:06;;;;;;;5.63;2.23;;;;;;;;;;5074984;28;20488;-71
2023/04/03 05:24:34;;;;;;;5.60;2.03;;;;;;;;;;5060020;28;20458;-71
2023/04/03 05:27:01;;;;;;;4.50;2.50;;;;;;;;;;5090232;28;20456;-72
2023/04/03 05:29:30;;;;;;;9.00;2.67;;;;;;;;;;5063710;28;20470;-72
2023/04/03 05:31:57;;;;;;;6.17;2.77;;;;;;;;;;5075703;28;20457;-72
2023/04/03 05:34:25;;;;;;;8.33;3.17;;;;;;;;;;5071579;28;20457;-71
2023/04/03 05:36:53;;;;;;;5.33;2.90;;;;;;;;;;5071987;28;20444;-72
2023/04/03 05:39:24;;;;;;;5.97;2.93;;;;;;;;;;5058761;28;20555;-73
2023/04/03 05:41:51;;;;;;;14.30;4.00;;;;;;;;;;5074667;28;20532;-72
2023/04/03 05:44:23;;;;;;;7.30;4.10;;;;;;;;;;5073889;28;20453;-73
2023/04/03 05:46:58;;;;;;;12.50;3.63;;;;;;;;;;5073975;28;20533;-73
2023/04/03 05:49:25;;;;;;;7.13;2.43;;;;;;;;;;5076901;28;20484;-72
2023/04/03 05:51:58;;;;;;;3.67;2.20;;;;;;;;;;5076468;28;20452;-73
2023/04/03 05:54:27;;;;;;;5.97;2.23;;;;;;;;;;5076404;28;20465;-72
2023/04/03 05:56:57;;;;;;;3.90;1.70;;;;;;;;;;5075934;28;20469;-72
2023/04/03 05:59:25;;;;;;;7.30;3.03;;;;;;;;;;5073736;28;20546;-72
2023/04/03 06:01:55;;;;;;;11.83;3.10;;;;;;;;;;5070798;28;20745;-73
2023/04/03 06:04:26;;;;;;;7.53;2.50;;;;;;;;;;5069040;28;20490;-72
2023/04/03 06:07:07;;;;;;;5.17;2.03;;;;;;;;;;5070432;28;21120;-72
2023/04/03 06:09:38;;;;;;;6.70;2.17;;;;;;;;;;5073467;28;20457;-70
2023/04/03 06:12:17;;;;;;;7.57;2.30;;;;;;;;;;5075904;28;20560;-71
2023/04/03 06:14:45;;;;;;;13.60;2.80;;;;;;;;;;5076018;28;20456;-71
2023/04/03 06:17:15;;;;;;;8.80;2.60;;;;;;;;;;5075435;28;20558;-70
2023/04/03 06:19:51;;;;;;;9.47;3.37;;;;;;;;;;5074725;28;20480;-71
2023/04/03 06:22:21;;;;;;;4.97;2.10;;;;;;;;;;5073998;28;20463;-71
2023/04/03 06:25:00;;;;;;;4.43;2.37;;;;;;;;;;5073504;28;20460;-71
2023/04/03 06:27:47;;;;;;;10.37;2.50;;;;;;;;;;5073550;28;20861;-71
2023/04/03 06:30:24;;;;;;;9.13;2.90;;;;;;;;;;5074515;28;20550;-72
2023/04/03 06:32:55;;;;;;;8.60;3.10;;;;;;;;;;5073165;28;20453;-71
2023/04/03 06:35:24;;;;;;;3.17;2.10;;;;;;;;;;5071501;28;20524;-71
2023/04/03 06:37:52;;;;;;;4.70;2.33;;;;;;;;;;5069663;28;20457;-71
2023/04/03 06:40:45;;;;;;;7.90;3.00;;;;;;;;;;5069672;28;20491;-71
2023/04/03 06:43:19;;;;;;;4.50;2.50;;;;;;;;;;5067820;28;20461;-71
2023/04/03 06:45:53;;;;;;;4.30;1.87;;;;;;;;;;5070186;28;20533;-72
2023/04/03 06:48:29;;;;;;;6.10;1.67;;;;;;;;;;5073295;28;20452;-70
2023/04/03 06:51:04;;;;;;;4.13;1.63;;;;;;;;;;5068082;28;20482;-70
2023/04/03 06:53:31;;;;;;;9.20;2.33;;;;;;;;;;5066479;28;20468;-72
2023/04/03 06:56:28;;;;;;;3.53;1.63;;;;;;;;;;5072040;28;20461;-73
2023/04/03 06:58:58;;;;;;;3.20;1.80;;;;;;;;;;5052398;28;20485;-71
2023/04/03 07:01:31;;;;;;;4.60;1.70;;;;;;;;;;5072380;28;20495;-72
2023/04/03 07:04:07;;;;;;;7.50;3.20;;;;;;;;;;5055661;28;20844;-72
2023/04/03 07:06:38;;;;;;;5.90;1.93;;;;;;;;;;5061325;28;20547;-72
2023/04/03 07:09:13;;;;;;;4.30;1.83;;;;;;;;;;5069951;28;20445;-72
2023/04/03 07:11:44;;;;;;;4.23;1.80;;;;;;;;;;5070714;28;20537;-71
2023/04/03 07:14:12;;;;;;;5.73;2.77;;;;;;;;;;5072162;28;20453;-72
2023/04/03 07:16:40;;;;;;;4.47;1.70;;;;;;;;;;5072312;28;20460;-72
2023/04/03 07:19:09;;;;;;;3.97;2.20;;;;;;;;;;5066671;28;20480;-72
2023/04/03 07:21:37;;;;;;;4.63;1.40;;;;;;;;;;5071892;28;20449;-73
2023/04/03 07:24:04;;;;;;;2.90;1.23;;;;;;;;;;5056255;28;20965;-73
2023/04/03 07:26:32;;;;;;;6.07;2.23;;;;;;;;;;5064192;28;20605;-72
2023/04/03 07:29:02;;;;;;;3.40;1.67;;;;;;;;;;5055736;28;20492;-73
2023/04/03 07:31:30;;;;;;;4.00;1.20;;;;;;;;;;5062047;28;20482;-73
2023/04/03 07:34:02;;;;;;;5.60;2.33;;;;;;;;;;5065746;28;20885;-73
2023/04/03 07:36:33;;;;;;;3.13;1.40;;;;;;;;;;5050483;28;20946;-73
2023/04/03 07:39:06;;;;;;;3.23;1.10;;;;;;;;;;5053486;28;20603;-73
2023/04/03 07:41:58;;;;;;;3.33;1.60;;;;;;;;;;5071200;28;20606;-74
2023/04/03 07:44:36;;;;;;;4.67;1.50;;;;;;;;;;5073200;28;20457;-73
2023/04/03 07:47:23;;;;;;;6.37;1.40;;;;;;;;;;5072370;28;20510;-73
2023/04/03 07:53:06;;;;;;;10.67;4.87;;;;;;;;;;5062784;28;20547;-74
2023/04/03 07:55:42;;;;;;;5.87;1.90;;;;;;;;;;5071497;28;21225;-74
2023/04/03 07:58:11;;;;;;;4.80;1.40;;;;;;;;;;5069224;28;20445;-72
2023/04/03 08:00:39;;;;;;;4.00;1.43;;;;;;;;;;5071070;28;20495;-72
2023/04/03 08:03:08;;;;;;;2.33;1.00;;;;;;;;;;5071004;28;21000;-73
2023/04/03 08:05:45;;;;;;;3.90;1.30;;;;;;;;;;5071286;28;20449;-72
2023/04/03 08:08:31;;;;;;;4.20;1.03;;;;;;;;;;5073015;28;20777;-74
2023/04/03 08:11:05;;;;;;;2.83;1.37;;;;;;;;;;5064241;28;20458;-73
2023/04/03 08:13:42;;;;;;;4.10;1.17;;;;;;;;;;5067870;28;21042;-73
2023/04/03 08:16:14;;;;;;;3.30;1.00;;;;;;;;;;5066183;28;20476;-73
2023/04/03 08:18:45;;;;;;;3.60;1.03;;;;;;;;;;5072294;28;20485;-73
2023/04/03 08:21:22;;;;;;;3.90;0.90;;;;;;;;;;5067073;28;20466;-74
2023/04/03 08:24:05;;;;;;;6.97;3.33;;;;;;;;;;5048967;28;20567;-73
2023/04/03 08:26:37;;;;;;;6.03;1.23;;;;;;;;;;5065867;28;20455;-72
2023/04/03 08:29:06;;;;;;;4.83;1.47;;;;;;;;;;5069577;28;20453;-75
2023/04/03 08:31:37;;;;;;;3.70;1.17;;;;;;;;;;5069196;28;20473;-75
2023/04/03 08:34:23;;;;;;;4.57;2.07;;;;;;;;;;5068609;28;20472;-73
2023/04/03 08:36:54;;;;;;;5.20;0.93;;;;;;;;;;5067131;28;20464;-73
2023/04/03 08:39:25;;;;;;;2.57;0.80;;;;;;;;;;5070553;28;21224;-73
2023/04/03 08:41:52;;;;;;;4.70;1.00;;;;;;;;;;5068654;28;20445;-74
2023/04/03 08:44:26;;;;;;;5.63;1.10;;;;;;;;;;5059990;28;20472;-73
2023/04/03 08:47:24;;;;;;;3.57;1.20;;;;;;;;;;5058745;28;20625;-73
2023/04/03 08:49:54;;;;;;;5.00;1.00;;;;;;;;;;5060879;28;20482;-73
2023/04/03 08:52:45;;;;;;;2.37;1.00;;;;;;;;;;5070458;28;20453;-73
2023/04/03 08:55:30;;;;;;;3.93;1.00;;;;;;;;;;5052556;28;20457;-73
2023/04/03 08:58:05;;;;;;;3.80;1.70;;;;;;;;;;5069918;28;21078;-74
2023/04/03 09:03:55;;;;;;;3.60;1.40;;;;;;;;;;5066094;28;20499;-74
2023/04/03 09:06:29;;;;;;;4.33;1.20;;;;;;;;;;5071597;28;20456;-74
2023/04/03 09:09:10;;;;;;;5.33;1.10;;;;;;;;;;5068279;28;21088;-73
2023/04/03 09:11:46;;;;;;;2.00;0.77;;;;;;;;;;5070534;28;20548;-73
2023/04/03 09:14:22;;;;;;;2.60;1.00;;;;;;;;;;5069905;28;20756;-74
2023/04/03 09:16:54;;;;;;;6.50;1.30;;;;;;;;;;5068607;28;20467;-73
2023/04/03 09:19:25;;;;;;;5.10;1.50;;;;;;;;;;5069320;28;20512;-73
2023/04/03 09:21:55;;;;;;;2.63;1.10;;;;;;;;;;5070454;28;20622;-73
2023/04/03 09:24:25;;;;;;;3.30;1.20;;;;;;;;;;5059011;28;20450;-75
2023/04/03 09:26:58;;;;;;;5.73;1.40;;;;;;;;;;5056161;28;20454;-74
2023/04/03 09:29:29;;;;;;;6.70;1.93;;;;;;;;;;5074305;28;20473;-74
2023/04/03 09:32:01;;;;;;;2.80;0.93;;;;;;;;;;5074094;28;20480;-73
2023/04/03 09:34:30;;;;;;;5.40;1.43;;;;;;;;;;5067554;28;20480;-73
2023/04/03 09:36:59;;;;;;;8.20;1.20;;;;;;;;;;5058861;28;20931;-73
2023/04/03 09:39:35;;;;;;;2.50;1.00;;;;;;;;;;5065603;28;20484;-73
2023/04/03 09:44:56;;;;;;;3.90;1.40;;;;;;;;;;5058503;28;20445;-72
2023/04/03 09:47:25;;;;;;;1.83;0.90;;;;;;;;;;5070685;28;20466;-74
2023/04/03 09:50:19;;;;;;;4.90;1.00;;;;;;;;;;5068606;28;20484;-73
2023/04/03 09:52:48;;;;;;;3.37;1.83;;;;;;;;;;5072273;28;21212;-73
2023/04/03 09:55:16;;;;;;;3.60;0.90;;;;;;;;;;5065886;28;20461;-73
2023/04/03 09:57:48;;;;;;;3.20;0.90;;;;;;;;;;5066638;28;20516;-73
2023/04/03 10:00:33;;;;;;;4.83;1.40;;;;;;;;;;5070423;28;21200;-73
2023/04/03 10:03:07;;;;;;;2.80;1.23;;;;;;;;;;5063090;28;20496;-74
2023/04/03 10:05:36;;;;;;;3.87;0.80;;;;;;;;;;5072365;28;20897;-74
2023/04/03 10:08:24;;;;;;;3.40;1.27;;;;;;;;;;5072633;28;20473;-73
2023/04/03 10:11:17;;;;;;;2.70;1.10;;;;;;;;;;5073439;28;20448;-74
2023/04/03 10:14:05;;;;;;;2.90;0.97;;;;;;;;;;5069527;28;20493;-74
2023/04/03 10:16:38;;;;;;;7.10;1.13;;;;;;;;;;5070855;28;20746;-74
2023/04/03 10:19:33;;;;;;;3.40;0.93;;;;;;;;;;5070806;28;20464;-74
2023/04/03 10:22:03;;;;;;;4.10;1.17;;;;;;;;;;5052766;28;20456;-73
2023/04/03 10:24:37;;;;;;;4.37;1.20;;;;;;;;;;5069461;28;21190;-74
2023/04/03 10:27:08;;;;;;;3.17;1.00;;;;;;;;;;5070283;28;20453;-74
2023/04/03 10:29:41;;;;;;;4.00;1.10;;;;;;;;;;5071609;28;20449;-74
2023/04/03 10:35:20;;;;;;;4.33;1.10;;;;;;;;;;5053063;28;20458;-73
2023/04/03 10:37:54;;;;;;;3.13;0.90;;;;;;;;;;5053430;28;20473;-72
2023/04/03 10:40:26;;;;;;;5.73;1.00;;;;;;;;;;5061105;28;20504;-73
2023/04/03 10:42:57;;;;;;;4.20;1.30;;;;;;;;;;5053408;28;20454;-73
2023/04/03 10:48:22;;;;;;;5.10;1.03;;;;;;;;;;5072791;28;21106;-73
2023/04/03 10:50:53;;;;;;;6.50;1.50;;;;;;;;;;5060750;28;20748;-73
2023/04/03 10:53:28;;;;;;;4.80;1.10;;;;;;;;;;5069740;28;20482;-73
2023/04/03 10:56:01;;;;;;;2.90;1.10;;;;;;;;;;5067845;28;20571;-73
2023/04/03 10:58:41;;;;;;;3.10;0.90;;;;;;;;;;5063680;28;20469;-73
2023/04/03 11:01:21;;;;;;;3.67;1.20;;;;;;;;;;5057337;28;20982;-73
2023/04/03 11:03:50;;;;;;;2.93;0.90;;;;;;;;;;5066896;28;20511;-72
2023/04/03 11:06:20;;;;;;;6.80;1.77;;;;;;;;;;5068668;28;20514;-72
2023/04/03 11:08:55;;;;;;;5.47;1.30;;;;;;;;;;5069710;28;20818;-72
2023/04/03 11:11:23;;;;;;;3.60;1.13;;;;;;;;;;5070144;28;20484;-72
2023/04/03 11:13:55;;;;;;;3.53;1.47;;;;;;;;;;5071223;28;20460;-72
2023/04/03 11:16:26;;;;;;;4.67;1.10;;;;;;;;;;5064293;28;20446;-72
2023/04/03 11:18:56;;;;;;;2.70;1.00;;;;;;;;;;5066775;28;20476;-72
2023/04/03 11:21:35;;;;;;;5.97;1.20;;;;;;;;;;5068673;28;20772;-72
2023/04/03 11:24:12;;;;;;;2.57;1.10;;;;;;;;;;5064422;28;20548;-72
2023/04/03 11:26:44;;;;;;;4.60;1.33;;;;;;;;;;5062292;28;20461;-72
2023/04/03 11:29:15;;;;;;;4.10;0.80;;;;;;;;;;5038415;28;20454;-71
2023/04/03 11:32:02;;;;;;;8.13;1.10;;;;;;;;;;5046603;28;20995;-71
2023/04/03 11:34:38;;;;;;;7.03;2.40;;;;;;;;;;5046538;28;20484;-71
2023/04/03 11:37:08;;;;;;;3.30;0.80;;;;;;;;;;5048260;28;20461;-72
2023/04/03 11:42:30;;;;;;;4.40;0.80;;;;;;;;;;5027297;28;20455;-72
2023/04/03 11:45:13;;;;;;;3.83;1.20;;;;;;;;;;5043616;28;20464;-71
2023/04/03 11:47:52;;;;;;;5.33;0.90;;;;;;;;;;5048775;28;20734;-72
2023/04/03 11:50:38;;;;;;;5.07;1.03;;;;;;;;;;5050398;28;20961;-72
2023/04/03 11:53:21;;;;;;;11.57;5.47;;;;;;;;;;5050166;28;20445;-72
2023/04/03 11:55:56;;;;;;;10.10;3.30;;;;;;;;;;5050607;28;20549;-72
2023/04/03 11:58:36;;;;;;;3.78;1.58;;;;;;;;;;5035673;28;20963;-74
2023/04/03 12:01:22;;;;;;;4.30;1.30;;;;;;;;;;5052248;28;20230;-72
2023/04/03 12:04:15;;;;;;;6.83;2.83;;;;;;;;;;5049821;28;20461;-72
2023/04/03 12:07:02;;;;;;;3.00;1.33;;;;;;;;;;5033858;28;20813;-72
2023/04/03 12:09:38;;;;;;;2.90;0.70;;;;;;;;;;5041600;28;20956;-72
2023/04/03 12:12:25;;;;;;;4.30;1.47;;;;;;;;;;5048933;28;20913;-73
2023/04/03 12:14:58;;;;;;;3.60;1.00;;;;;;;;;;5048056;28;20465;-73
2023/04/03 12:17:41;;;;;;;4.97;1.03;;;;;;;;;;5049152;28;20564;-71
2023/04/03 12:20:32;;;;;;;5.50;1.80;;;;;;;;;;5044179;28;20485;-71
2023/04/03 12:23:38;;;;;;;3.50;1.10;;;;;;;;;;5035708;28;20438;-73
2023/04/03 12:26:25;;;;;;;4.20;1.57;;;;;;;;;;5028287;28;20454;-72
2023/04/03 12:28:55;;;;;;;8.40;4.20;;;;;;;;;;5029877;28;20937;-72
2023/04/03 12:31:29;;;;;;;4.80;1.70;;;;;;;;;;5047116;28;20457;-72
2023/04/03 12:34:30;;;;;;;3.60;1.23;;;;;;;;;;5049158;28;20559;-72
2023/04/03 12:37:05;;;;;;;3.03;1.10;;;;;;;;;;4967153;28;20916;-71
2023/04/03 12:39:46;;;;;;;4.40;1.00;;;;;;;;;;5017353;28;20483;-72
2023/04/03 12:42:25;;;;;;;3.63;1.20;;;;;;;;;;5041302;28;20449;-71
2023/04/03 12:45:14;;;;;;;7.00;1.00;;;;;;;;;;5069466;28;20529;-71
2023/04/03 12:47:52;;;;;;;2.50;0.90;;;;;;;;;;5069248;28;20455;-72
2023/04/03 12:50:23;;;;;;;3.93;1.00;;;;;;;;;;5055377;28;20455;-71
2023/04/03 12:53:06;;;;;;;4.30;1.30;;;;;;;;;;5044970;28;20528;-71
2023/04/03 12:55:42;;;;;;;8.10;2.50;;;;;;;;;;5048412;28;20450;-71
2023/04/03 12:58:22;;;;;;;4.27;1.10;;;;;;;;;;5029823;28;20459;-71
2023/04/03 13:01:01;;;;;;;5.20;1.40;;;;;;;;;;5036433;28;20501;-71
2023/04/03 13:03:31;;;;;;;3.93;1.00;;;;;;;;;;5028656;28;20656;-70
2023/04/03 13:06:04;;;;;;;11.03;3.73;;;;;;;;;;5029290;28;20466;-71
2023/04/03 13:08:36;;;;;;;4.13;1.07;;;;;;;;;;5027945;28;20463;-71
2023/04/03 13:11:06;;;;;;;16.20;7.73;;;;;;;;;;5025980;28;20443;-72
2023/04/03 13:13:35;;;;;;;3.80;1.00;;;;;;;;;;5024444;28;20459;-74
2023/04/03 13:16:10;;;;;;;4.90;1.27;;;;;;;;;;5040408;28;20484;-71
2023/04/03 13:18:38;;;;;;;4.77;1.50;;;;;;;;;;5044520;28;20560;-71
2023/04/03 13:21:14;;;;;;;4.10;1.30;;;;;;;;;;5047518;28;20494;-72
2023/04/03 13:23:47;;;;;;;3.70;1.13;;;;;;;;;;5046758;28;21012;-72
2023/04/03 13:26:18;;;;;;;5.23;2.30;;;;;;;;;;5043687;28;20493;-73
2023/04/03 13:29:17;;;;;;;7.37;2.20;;;;;;;;;;5046996;28;20596;-73
2023/04/03 13:31:56;;;;;;;4.83;1.90;;;;;;;;;;5047820;28;20504;-72
2023/04/03 13:34:28;;;;;;;2.87;0.93;;;;;;;;;;5049161;28;20464;-72
2023/04/03 13:37:01;;;;;;;6.47;1.53;;;;;;;;;;5047998;28;20442;-71
2023/04/03 13:39:38;;;;;;;4.37;1.27;;;;;;;;;;5045132;28;20494;-71
2023/04/03 13:42:16;;;;;;;4.77;1.93;;;;;;;;;;5051036;28;20490;-72
2023/04/03 13:44:45;;;;;;;3.73;1.37;;;;;;;;;;5050116;28;20461;-72
2023/04/03 13:47:27;;;;;;;3.80;1.23;;;;;;;;;;5049602;28;20508;-73
2023/04/03 13:50:13;;;;;;;3.23;1.33;;;;;;;;;;5046763;28;20468;-73
2023/04/03 13:52:59;;;;;;;3.43;1.00;;;;;;;;;;5050914;28;20787;-72
2023/04/03 13:55:34;;;;;;;3.10;1.10;;;;;;;;;;5049106;28;20462;-72
2023/04/03 13:58:03;;;;;;;2.57;0.93;;;;;;;;;;5049159;28;20445;-71
2023/04/03 14:00:52;;;;;;;3.57;0.90;;;;;;;;;;5046973;28;20469;-71
2023/04/03 14:03:26;;;;;;;4.20;1.27;;;;;;;;;;5046742;28;20446;-72
2023/04/03 14:05:53;;;;;;;3.33;1.00;;;;;;;;;;5047480;28;20450;-72
2023/04/03 14:08:21;;;;;;;3.67;0.90;;;;;;;;;;5031537;28;20470;-72
2023/04/03 14:10:52;;;;;;;7.83;1.30;;;;;;;;;;5031554;28;20599;-72
2023/04/03 14:13:22;;;;;;;2.77;1.30;;;;;;;;;;5047858;28;21088;-73
2023/04/03 14:16:00;;;;;;;4.37;1.10;;;;;;;;;;5049232;28;20503;-71
2023/04/03 14:18:44;;;;;;;2.37;0.80;;;;;;;;;;5028639;28;20446;-72
2023/04/03 14:21:13;;;;;;;2.90;0.90;;;;;;;;;;5029070;28;20502;-71
2023/04/03 14:23:41;;;;;;;4.13;1.00;;;;;;;;;;5043351;28;20531;-71
2023/04/03 14:26:35;;;;;;;3.47;1.23;;;;;;;;;;5036712;28;20483;-74
2023/04/03 14:29:04;;;;;;;2.90;1.07;;;;;;;;;;5032075;28;20447;-72
2023/04/03 14:31:35;;;;;;;5.00;1.20;;;;;;;;;;5030244;28;20481;-71
2023/04/03 14:34:13;;;;;;;2.40;0.90;;;;;;;;;;5043440;28;20461;-72
2023/04/03 14:36:56;;;;;;;4.20;1.90;;;;;;;;;;5034644;28;20478;-72
2023/04/03 14:39:30;;;;;;;4.00;1.57;;;;;;;;;;5032624;28;20606;-72
2023/04/03 14:42:03;;;;;;;2.87;1.10;;;;;;;;;;4993602;28;20828;-72
2023/04/03 14:44:42;;;;;;;6.10;1.03;;;;;;;;;;4992863;28;20456;-73
2023/04/03 14:47:14;;;;;;;2.93;0.90;;;;;;;;;;5013312;28;20499;-71
2023/04/03 14:49:43;;;;;;;2.93;1.00;;;;;;;;;;5012581;28;20537;-72
2023/04/03 14:52:19;;;;;;;2.77;1.03;;;;;;;;;;5008439;28;20447;-72
2023/04/03 14:54:47;;;;;;;3.53;1.13;;;;;;;;;;5006507;28;20478;-70
2023/04/03 14:57:20;;;;;;;4.13;1.87;;;;;;;;;;5007091;28;20509;-71
2023/04/03 14:59:54;;;;;;;2.77;0.70;;;;;;;;;;5009644;28;20872;-72
2023/04/03 15:02:27;;;;;;;11.43;6.20;;;;;;;;;;5026836;28;20603;-72
2023/04/03 15:04:59;;;;;;;15.03;6.00;;;;;;;;;;5048688;28;20798;-72
2023/04/03 15:07:29;;;;;;;7.77;4.93;;;;;;;;;;5044894;28;21000;-72
2023/04/03 15:09:58;;;;;;;5.33;1.57;;;;;;;;;;5051512;28;20477;-72
2023/04/03 15:12:26;;;;;;;4.57;1.33;;;;;;;;;;5048458;28;20446;-73
2023/04/03 15:14:54;;;;;;;3.60;1.10;;;;;;;;;;5045484;28;20577;-71
2023/04/03 15:17:23;;;;;;;5.27;1.00;;;;;;;;;;5051049;28;20453;-70
2023/04/03 15:19:54;;;;;;;2.10;0.80;;;;;;;;;;5036627;28;20459;-70
2023/04/03 15:22:23;;;;;;;3.00;1.33;;;;;;;;;;5040785;28;20496;-73
2023/04/03 15:24:57;;;;;;;2.63;1.10;;;;;;;;;;5043602;28;20525;-71
2023/04/03 15:27:31;;;;;;;2.50;0.90;;;;;;;;;;5039577;28;20702;-70
2023/04/03 15:30:07;;;;;;;4.03;1.17;;;;;;;;;;5037896;28;20508;-73
2023/04/03 15:32:56;;;;;;;3.17;1.00;;;;;;;;;;5045855;28;20461;-71
2023/04/03 15:35:31;;;;;;;2.40;0.87;;;;;;;;;;5049334;28;20545;-70